createdAt,value
2018-05-15T00:00:25.171Z,96.90
2018-05-15T00:02:52.746Z,97.10
2018-05-15T00:05:20.307Z,97.10
2018-05-15T00:07:48.224Z,97.40
2018-05-15T00:10:15.796Z,97.50
2018-05-15T00:12:43.370Z,97.30
2018-05-15T00:15:10.964Z,97.60
2018-05-15T00:17:38.537Z,97.70
2018-05-15T00:20:06.754Z,98.00
2018-05-15T00:22:34.321Z,98.20
2018-05-15T00:25:01.897Z,98.00
2018-05-15T00:27:30.237Z,98.70
2018-05-15T00:29:57.799Z,98.40
2018-05-15T00:32:25.379Z,98.70
2018-05-15T00:34:52.964Z,98.70
2018-05-15T00:37:20.553Z,99.10
2018-05-15T00:39:48.116Z,98.90
2018-05-15T00:42:15.730Z,99.10
2018-05-15T00:44:43.408Z,99.30
2018-05-15T00:47:11.735Z,99.10
2018-05-15T00:49:39.357Z,99.10
2018-05-15T00:52:06.970Z,99.30
2018-05-15T00:54:34.545Z,99.30
2018-05-15T00:57:02.146Z,99.10
2018-05-15T00:59:29.744Z,99.40
2018-05-15T01:01:57.316Z,99.20
2018-05-15T01:04:24.905Z,99.00
2018-05-15T01:06:53.356Z,98.90
2018-05-15T01:09:20.968Z,98.90
2018-05-15T01:11:48.542Z,98.80
2018-05-15T01:14:16.121Z,98.90
2018-05-15T01:16:43.740Z,98.90
2018-05-15T01:19:11.389Z,99.00
2018-05-15T01:21:39.752Z,98.70
2018-05-15T01:24:07.329Z,98.70
2018-05-15T01:26:35.654Z,99.00
2018-05-15T01:29:03.219Z,98.50
2018-05-15T01:31:30.818Z,98.50
2018-05-15T01:33:58.424Z,98.30
2018-05-15T01:36:26.026Z,98.50
2018-05-15T01:38:53.623Z,98.40
2018-05-15T01:41:21.247Z,98.30
2018-05-15T01:43:48.909Z,98.30
2018-05-15T01:46:16.496Z,98.50
2018-05-15T01:48:44.850Z,98.60
2018-05-15T01:51:12.503Z,98.60
2018-05-15T01:53:40.077Z,98.60
2018-05-15T01:56:07.653Z,98.90
2018-05-15T01:58:36.052Z,98.80
2018-05-15T02:01:03.664Z,98.80
2018-05-15T02:03:31.249Z,99.10
2018-05-15T02:05:58.841Z,99.10
2018-05-15T02:08:26.457Z,99.00
2018-05-15T02:10:54.063Z,98.90
2018-05-15T02:13:21.654Z,98.80
2018-05-15T02:15:49.328Z,98.90
2018-05-15T02:18:16.935Z,98.60
2018-05-15T02:20:45.263Z,98.70
2018-05-15T02:23:12.900Z,98.70
2018-05-15T02:25:40.474Z,98.60
2018-05-15T02:28:08.068Z,98.90
2018-05-15T02:30:36.417Z,98.70
2018-05-15T02:33:04.028Z,98.70
2018-05-15T02:35:32.359Z,98.90
2018-05-15T02:37:59.974Z,98.90
2018-05-15T02:40:27.552Z,98.80
2018-05-15T02:42:55.124Z,98.80
2018-05-15T02:45:22.738Z,98.60
2018-05-15T02:47:51.120Z,98.90
2018-05-15T02:50:19.499Z,98.80
2018-05-15T02:52:47.892Z,99.00
2018-05-15T02:55:15.505Z,99.00
2018-05-15T02:57:43.106Z,99.00
2018-05-15T03:00:11.477Z,99.00
2018-05-15T03:02:39.851Z,99.40
2018-05-15T03:05:08.260Z,99.40
2018-05-15T03:07:35.870Z,99.40
2018-05-15T03:10:03.491Z,99.30
2018-05-15T03:12:31.159Z,99.30
2018-05-15T03:14:58.809Z,99.30
2018-05-15T03:17:26.466Z,99.30
2018-05-15T03:19:54.152Z,99.60
2018-05-15T03:22:21.774Z,99.60
2018-05-15T03:24:50.164Z,99.60
2018-05-15T03:27:17.801Z,99.60
2018-05-15T03:29:46.144Z,99.90
2018-05-15T03:32:13.763Z,99.90
2018-05-15T03:34:41.394Z,99.90
2018-05-15T03:37:08.968Z,99.90
2018-05-15T03:39:37.330Z,99.90
2018-05-15T03:42:04.938Z,99.90
2018-05-15T03:44:32.578Z,99.90
2018-05-15T03:47:00.958Z,99.90
2018-05-15T03:49:28.577Z,99.90
2018-05-15T03:51:56.246Z,99.90
2018-05-15T03:54:23.919Z,99.90
2018-05-15T03:56:51.534Z,99.90
2018-05-15T03:59:19.113Z,99.90
2018-05-15T04:01:58.508Z,99.90
2018-05-15T04:04:37.751Z,99.90
2018-05-15T04:07:17.409Z,99.90
2018-05-15T04:09:45.047Z,99.90
2018-05-15T04:12:12.639Z,99.90
2018-05-15T04:14:40.243Z,99.90
2018-05-15T04:17:09.162Z,99.90
2018-05-15T04:19:36.756Z,99.90
2018-05-15T04:22:04.410Z,99.90
2018-05-15T04:24:32.009Z,99.90
2018-05-15T04:27:00.380Z,99.90
2018-05-15T04:29:28.035Z,99.90
2018-05-15T04:31:57.172Z,99.90
2018-05-15T04:34:24.761Z,99.90
2018-05-15T04:36:52.379Z,99.90
2018-05-15T04:39:19.937Z,99.90
2018-05-15T04:41:47.533Z,99.90
2018-05-15T04:44:15.736Z,99.90
2018-05-15T04:46:43.434Z,99.90
2018-05-15T04:49:11.016Z,99.90
2018-05-15T04:51:38.657Z,99.90
2018-05-15T04:54:06.313Z,99.90
2018-05-15T04:56:33.891Z,99.90
2018-05-15T04:59:01.553Z,99.90
2018-05-15T05:01:29.130Z,99.90
2018-05-15T05:03:56.834Z,99.90
2018-05-15T05:06:24.517Z,99.80
2018-05-15T05:08:52.118Z,99.10
2018-05-15T05:11:20.721Z,97.70
2018-05-15T05:13:48.716Z,96.50
2018-05-15T05:16:16.340Z,96.00
2018-05-15T05:18:43.985Z,95.30
2018-05-15T05:21:11.620Z,94.70
2018-05-15T05:23:39.234Z,93.90
2018-05-15T05:26:06.918Z,93.50
2018-05-15T05:28:34.548Z,93.20
2018-05-15T05:31:02.248Z,92.40
2018-05-15T05:33:29.889Z,91.90
2018-05-15T05:35:57.512Z,91.70
2018-05-15T05:38:25.904Z,91.90
2018-05-15T05:40:54.285Z,91.70
2018-05-15T05:43:21.879Z,91.70
2018-05-15T05:45:49.503Z,90.90
2018-05-15T05:48:17.269Z,90.60
2018-05-15T05:50:45.750Z,91.00
2018-05-15T05:53:13.453Z,91.00
2018-05-15T05:55:41.093Z,91.10
2018-05-15T05:58:08.693Z,90.50
2018-05-15T06:00:36.331Z,90.00
2018-05-15T06:03:03.926Z,89.80
2018-05-15T06:05:31.581Z,89.20
2018-05-15T06:07:59.181Z,88.30
2018-05-15T06:10:26.905Z,88.40
2018-05-15T06:12:54.532Z,87.40
2018-05-15T06:15:22.107Z,88.20
2018-05-15T06:17:49.753Z,87.40
2018-05-15T06:20:17.387Z,86.90
2018-05-15T06:22:44.988Z,86.70
2018-05-15T06:25:12.574Z,87.00
2018-05-15T06:27:40.245Z,87.60
2018-05-15T06:30:07.831Z,85.30
2018-05-15T06:32:36.224Z,84.70
2018-05-15T06:35:03.818Z,84.70
2018-05-15T06:37:31.407Z,83.80
2018-05-15T06:39:59.022Z,84.20
2018-05-15T06:42:26.799Z,84.50
2018-05-15T06:44:54.435Z,85.80
2018-05-15T06:47:22.028Z,86.80
2018-05-15T06:49:49.637Z,88.30
2018-05-15T06:52:17.240Z,90.20
2018-05-15T06:54:45.031Z,91.00
2018-05-15T06:57:12.628Z,91.70
2018-05-15T06:59:40.240Z,92.00
2018-05-15T07:02:07.856Z,92.10
2018-05-15T07:04:35.473Z,92.80
2018-05-15T07:07:03.067Z,93.50
2018-05-15T07:09:31.410Z,94.10
2018-05-15T07:11:59.043Z,94.00
2018-05-15T07:14:26.951Z,94.30
2018-05-15T07:16:55.304Z,94.10
2018-05-15T07:19:22.989Z,94.10
2018-05-15T07:21:50.521Z,94.50
2018-05-15T07:24:18.184Z,94.60
2018-05-15T07:26:45.753Z,94.40
2018-05-15T07:29:13.345Z,95.00
2018-05-15T07:31:41.671Z,94.50
2018-05-15T07:34:09.253Z,94.50
2018-05-15T07:36:36.856Z,94.40
2018-05-15T07:39:06.192Z,94.70
2018-05-15T07:41:33.811Z,94.70
2018-05-15T07:44:01.446Z,95.20
2018-05-15T07:46:29.040Z,94.90
2018-05-15T07:48:56.773Z,94.80
2018-05-15T07:51:24.393Z,94.70
2018-05-15T07:53:51.961Z,94.20
2018-05-15T07:56:19.591Z,93.00
2018-05-15T07:58:47.190Z,93.10
2018-05-15T08:01:14.852Z,93.40
2018-05-15T08:03:42.450Z,92.90
2018-05-15T08:06:10.017Z,93.20
2018-05-15T08:08:38.406Z,93.10
2018-05-15T08:11:06.778Z,93.40
2018-05-15T08:13:35.164Z,92.10
2018-05-15T08:16:03.576Z,91.80
2018-05-15T08:18:31.196Z,91.80
2018-05-15T08:20:59.599Z,90.10
2018-05-15T08:23:27.295Z,90.10
2018-05-15T08:25:54.868Z,91.40
2018-05-15T08:28:22.445Z,91.40
2018-05-15T08:30:50.119Z,90.20
2018-05-15T08:33:17.703Z,90.60
2018-05-15T08:35:45.330Z,91.30
2018-05-15T08:38:12.922Z,89.70
2018-05-15T08:40:40.559Z,90.50
2018-05-15T08:43:08.142Z,90.20
2018-05-15T08:45:35.780Z,90.20
2018-05-15T08:48:03.394Z,88.70
2018-05-15T08:50:31.033Z,88.60
2018-05-15T08:52:58.608Z,87.60
2018-05-15T08:55:26.191Z,85.60
2018-05-15T08:57:53.926Z,86.50
2018-05-15T09:00:21.587Z,85.70
2018-05-15T09:02:49.213Z,85.60
2018-05-15T09:05:17.728Z,84.00
2018-05-15T09:07:45.428Z,84.00
2018-05-15T09:10:13.054Z,84.00
2018-05-15T09:12:40.620Z,83.40
2018-05-15T09:15:08.361Z,83.70
2018-05-15T09:17:35.943Z,82.80
2018-05-15T09:20:03.704Z,84.40
2018-05-15T09:22:31.494Z,82.30
2018-05-15T09:24:59.168Z,79.50
2018-05-15T09:27:26.767Z,81.70
2018-05-15T09:29:54.578Z,80.20
2018-05-15T09:32:22.160Z,81.10
2018-05-15T09:34:49.769Z,81.90
2018-05-15T09:37:17.410Z,81.70
2018-05-15T09:39:45.047Z,82.70
2018-05-15T09:42:12.732Z,81.40
2018-05-15T09:44:41.116Z,81.00
2018-05-15T09:47:09.606Z,81.30
2018-05-15T09:49:37.231Z,81.30
2018-05-15T09:52:04.868Z,82.00
2018-05-15T09:54:32.531Z,81.60
2018-05-15T09:57:01.047Z,81.50
2018-05-15T09:59:28.655Z,79.90
2018-05-15T10:01:56.276Z,80.10
2018-05-15T10:04:23.904Z,80.50
2018-05-15T10:06:51.511Z,82.00
2018-05-15T10:09:19.867Z,81.30
2018-05-15T10:11:47.474Z,81.20
2018-05-15T10:14:15.229Z,78.50
2018-05-15T10:16:43.695Z,79.60
2018-05-15T10:19:11.304Z,80.50
2018-05-15T10:21:38.934Z,81.60
2018-05-15T10:24:07.385Z,80.50
2018-05-15T10:26:35.821Z,79.40
2018-05-15T10:29:03.484Z,79.20
2018-05-15T10:31:31.119Z,78.40
2018-05-15T10:33:58.673Z,76.90
2018-05-15T10:36:27.091Z,76.90
2018-05-15T10:38:54.683Z,76.90
2018-05-15T10:41:22.296Z,75.20
2018-05-15T10:43:49.999Z,77.10
2018-05-15T10:46:17.586Z,77.00
2018-05-15T10:48:45.518Z,75.50
2018-05-15T10:51:13.164Z,76.70
2018-05-15T10:53:40.774Z,75.30
2018-05-15T10:56:08.433Z,77.50
2018-05-15T10:58:36.972Z,75.20
2018-05-15T11:01:04.557Z,75.70
2018-05-15T11:03:32.260Z,76.10
2018-05-15T11:06:00.608Z,73.30
2018-05-15T11:08:28.209Z,73.20
2018-05-15T11:10:56.698Z,76.70
2018-05-15T11:13:24.308Z,76.80
2018-05-15T11:15:51.936Z,77.00
2018-05-15T11:18:43.232Z,75.00
2018-05-15T11:21:22.710Z,73.30
2018-05-15T11:24:02.147Z,73.30
2018-05-15T11:26:29.807Z,73.50
2018-05-15T11:28:57.409Z,73.40
2018-05-15T11:31:25.015Z,74.60
2018-05-15T11:33:52.634Z,73.80
2018-05-15T11:36:20.206Z,75.30
2018-05-15T11:38:49.791Z,75.30
2018-05-15T11:41:17.382Z,75.20
2018-05-15T11:43:45.822Z,76.70
2018-05-15T11:46:13.410Z,76.70
2018-05-15T11:48:42.374Z,75.20
2018-05-15T11:51:10.158Z,75.10
2018-05-15T11:53:37.007Z,73.40
2018-05-15T11:56:04.662Z,73.00
2018-05-15T11:58:32.249Z,72.80
2018-05-15T12:01:00.669Z,73.70
2018-05-15T12:03:28.364Z,73.80
2018-05-15T12:05:55.974Z,71.70
2018-05-15T12:08:23.581Z,72.50
2018-05-15T12:10:51.195Z,72.60
2018-05-15T12:13:19.640Z,74.20
2018-05-15T12:15:47.233Z,74.10
2018-05-15T12:18:14.871Z,71.70
2018-05-15T12:20:43.250Z,72.80
2018-05-15T12:23:11.682Z,69.40
2018-05-15T12:25:39.260Z,69.40
2018-05-15T12:28:06.934Z,69.90
2018-05-15T12:30:34.532Z,71.30
2018-05-15T12:33:02.203Z,71.90
2018-05-15T12:35:29.835Z,74.10
2018-05-15T12:37:57.444Z,71.90
2018-05-15T12:40:25.074Z,71.60
2018-05-15T12:42:52.720Z,71.00
2018-05-15T12:45:20.317Z,70.60
2018-05-15T12:47:47.980Z,69.80
2018-05-15T12:50:15.710Z,69.80
2018-05-15T12:52:43.662Z,70.30
2018-05-15T12:55:11.298Z,70.50
2018-05-15T12:57:39.715Z,70.20
2018-05-15T13:00:07.339Z,70.90
2018-05-15T13:02:34.992Z,71.30
2018-05-15T13:05:02.644Z,68.90
2018-05-15T13:07:30.244Z,70.20
2018-05-15T13:09:57.977Z,70.40
2018-05-15T13:12:25.599Z,71.70
2018-05-15T13:14:53.298Z,69.50
2018-05-15T13:17:20.898Z,70.40
2018-05-15T13:19:48.569Z,69.60
2018-05-15T13:22:16.211Z,68.30
2018-05-15T13:24:43.995Z,70.50
2018-05-15T13:27:11.564Z,71.10
2018-05-15T13:29:39.954Z,71.00
2018-05-15T13:32:08.303Z,70.00
2018-05-15T13:34:36.018Z,70.00
2018-05-15T13:37:03.652Z,68.90
2018-05-15T13:39:32.128Z,69.10
2018-05-15T13:42:01.393Z,70.50
2018-05-15T13:44:29.040Z,70.50
2018-05-15T13:46:56.734Z,71.10
2018-05-15T13:49:24.360Z,69.70
2018-05-15T13:51:51.993Z,70.00
2018-05-15T13:54:25.292Z,69.50
2018-05-15T13:56:52.892Z,69.50
2018-05-15T13:59:20.587Z,66.30
2018-05-15T14:01:48.611Z,67.70
2018-05-15T14:04:16.300Z,67.50
2018-05-15T14:06:44.147Z,66.70
2018-05-15T14:09:12.685Z,66.40
2018-05-15T14:11:42.137Z,66.40
2018-05-15T14:14:09.742Z,67.80
2018-05-15T14:16:37.372Z,68.10
2018-05-15T14:19:05.620Z,66.60
2018-05-15T14:21:33.289Z,67.70
2018-05-15T14:24:00.985Z,66.80
2018-05-15T14:26:28.646Z,66.40
2018-05-15T14:28:56.427Z,67.20
2018-05-15T14:31:24.084Z,68.60
2018-05-15T14:33:51.731Z,69.40
2018-05-15T14:36:20.395Z,69.50
2018-05-15T14:38:48.112Z,69.30
2018-05-15T14:41:15.831Z,67.70
2018-05-15T14:43:43.490Z,68.40
2018-05-15T14:46:11.182Z,68.20
2018-05-15T14:48:38.905Z,61.30
2018-05-15T14:54:05.972Z,64.20
2018-05-15T14:56:33.587Z,65.90
2018-05-15T14:59:01.944Z,64.10
2018-05-15T15:01:29.565Z,64.10
2018-05-15T15:03:57.176Z,65.10
2018-05-15T15:06:24.744Z,64.80
2018-05-15T15:08:52.371Z,63.50
2018-05-15T15:11:20.001Z,64.50
2018-05-15T15:13:48.389Z,64.70
2018-05-15T15:16:15.966Z,64.50
2018-05-15T15:18:43.559Z,65.20
2018-05-15T15:21:11.277Z,63.90
2018-05-15T15:23:38.907Z,66.80
2018-05-15T15:26:06.490Z,66.40
2018-05-15T15:28:34.153Z,67.10
2018-05-15T15:31:01.801Z,67.20
2018-05-15T15:33:30.204Z,67.20
2018-05-15T15:35:57.835Z,67.10
2018-05-15T15:38:25.429Z,67.50
2018-05-15T15:40:53.064Z,68.20
2018-05-15T15:43:21.410Z,67.30
2018-05-15T15:45:48.997Z,67.30
2018-05-15T15:48:17.378Z,67.70
2018-05-15T15:50:45.753Z,67.00
2018-05-15T15:53:14.930Z,67.30
2018-05-15T15:55:42.535Z,67.10
2018-05-15T15:58:10.082Z,66.60
2018-05-15T16:00:38.438Z,66.60
2018-05-15T16:03:06.055Z,66.60
2018-05-15T16:05:34.452Z,66.10
2018-05-15T16:08:02.154Z,65.70
2018-05-15T16:10:29.856Z,66.40
2018-05-15T16:12:57.484Z,66.70
2018-05-15T16:15:25.082Z,67.10
2018-05-15T16:17:52.641Z,64.40
2018-05-15T16:20:20.257Z,65.30
2018-05-15T16:22:47.958Z,65.60
2018-05-15T16:25:15.605Z,66.00
2018-05-15T16:27:43.933Z,65.90
2018-05-15T16:30:11.553Z,65.90
2018-05-15T16:32:39.212Z,66.50
2018-05-15T16:35:07.617Z,67.90
2018-05-15T16:37:35.245Z,67.80
2018-05-15T16:40:03.631Z,67.80
2018-05-15T16:42:32.017Z,68.00
2018-05-15T16:44:59.624Z,68.00
2018-05-15T16:47:27.234Z,68.60
2018-05-15T16:49:54.803Z,69.30
2018-05-15T16:52:22.551Z,70.00
2018-05-15T16:54:51.374Z,70.40
2018-05-15T16:57:18.986Z,70.40
2018-05-15T16:59:47.187Z,71.00
2018-05-15T17:02:14.804Z,71.60
2018-05-15T17:04:42.376Z,69.70
2018-05-15T17:07:10.007Z,70.20
2018-05-15T17:09:37.620Z,70.90
2018-05-15T17:12:06.004Z,69.70
2018-05-15T17:14:34.371Z,70.30
2018-05-15T17:17:02.727Z,70.50
2018-05-15T17:19:30.400Z,70.50
2018-05-15T17:21:58.014Z,70.10
2018-05-15T17:24:25.577Z,70.30
2018-05-15T17:26:53.285Z,69.00
2018-05-15T17:29:21.673Z,66.40
2018-05-15T17:31:49.251Z,66.20
2018-05-15T17:34:16.906Z,65.10
2018-05-15T17:36:44.706Z,64.00
2018-05-15T17:39:12.315Z,63.60
2018-05-15T17:41:39.932Z,63.40
2018-05-15T17:44:07.608Z,64.80
2018-05-15T17:46:35.263Z,65.50
2018-05-15T17:49:02.931Z,65.60
2018-05-15T17:51:30.540Z,66.30
2018-05-15T17:53:58.897Z,67.20
2018-05-15T17:56:28.572Z,67.30
2018-05-15T17:58:56.132Z,68.30
2018-05-15T18:01:23.783Z,66.90
2018-05-15T18:03:51.365Z,67.00
2018-05-15T18:06:18.996Z,65.30
2018-05-15T18:08:46.600Z,66.70
2018-05-15T18:11:14.183Z,66.60
2018-05-15T18:13:41.765Z,68.60
2018-05-15T18:16:10.250Z,68.80
2018-05-15T18:18:37.884Z,68.80
2018-05-15T18:21:05.481Z,69.60
2018-05-15T18:23:33.122Z,70.40
2018-05-15T18:26:01.471Z,72.00
2018-05-15T18:28:29.038Z,72.00
2018-05-15T18:30:56.625Z,72.70
2018-05-15T18:33:25.001Z,72.90
2018-05-15T18:35:52.624Z,72.90
2018-05-15T18:38:20.283Z,72.70
2018-05-15T18:40:47.936Z,72.20
2018-05-15T18:43:15.572Z,72.90
2018-05-15T18:45:43.182Z,74.10
2018-05-15T18:48:10.762Z,74.70
2018-05-15T18:50:39.224Z,75.90
2018-05-15T18:53:06.875Z,75.80
2018-05-15T18:55:35.045Z,76.60
2018-05-15T18:58:02.708Z,77.20
2018-05-15T19:00:30.259Z,77.60
2018-05-15T19:02:57.873Z,77.90
2018-05-15T19:05:25.487Z,78.20
2018-05-15T19:07:53.056Z,78.00
2018-05-15T19:10:20.627Z,77.80
2018-05-15T19:12:48.250Z,78.50
2018-05-15T19:15:15.856Z,78.90
2018-05-15T19:17:44.252Z,80.50
2018-05-15T19:20:12.607Z,80.80
2018-05-15T19:22:40.222Z,80.70
2018-05-15T19:25:07.788Z,80.40
2018-05-15T19:27:35.381Z,80.80
2018-05-15T19:30:02.985Z,81.40
2018-05-15T19:32:36.376Z,81.40
2018-05-15T19:35:07.828Z,81.30
2018-05-15T19:37:35.434Z,81.90
2018-05-15T19:40:08.729Z,82.20
2018-05-15T19:42:36.323Z,82.70
2018-05-15T19:45:03.998Z,83.10
2018-05-15T19:47:31.609Z,83.70
2018-05-15T19:49:59.172Z,84.10
2018-05-15T19:52:26.769Z,84.20
2018-05-15T19:54:55.135Z,84.40
2018-05-15T19:57:22.807Z,84.40
2018-05-15T19:59:50.385Z,84.40
2018-05-15T20:02:18.209Z,84.10
2018-05-15T20:04:45.886Z,84.50
2018-05-15T20:07:13.519Z,84.50
2018-05-15T20:09:41.716Z,85.00
2018-05-15T20:12:09.380Z,85.60
2018-05-15T20:14:36.935Z,85.10
2018-05-15T20:17:04.589Z,85.10
2018-05-15T20:19:32.224Z,85.30
2018-05-15T20:21:59.840Z,85.40
2018-05-15T20:24:28.198Z,85.90
2018-05-15T20:26:55.864Z,85.90
2018-05-15T20:29:24.224Z,86.80
2018-05-15T20:31:51.819Z,86.80
2018-05-15T20:34:20.135Z,87.50
2018-05-15T20:36:47.693Z,87.40
2018-05-15T20:39:15.291Z,87.80
2018-05-15T20:41:42.998Z,87.80
2018-05-15T20:44:10.611Z,88.30
2018-05-15T20:46:38.235Z,88.00
2018-05-15T20:49:10.163Z,88.30
2018-05-15T20:51:38.539Z,88.40
2018-05-15T20:54:06.880Z,88.80
2018-05-15T20:56:34.534Z,88.70
2018-05-15T20:59:02.172Z,88.70
2018-05-15T21:01:29.739Z,89.10
2018-05-15T21:03:57.369Z,89.00
2018-05-15T21:06:25.729Z,89.90
2018-05-15T21:08:53.365Z,89.90
2018-05-15T21:11:20.925Z,90.00
2018-05-15T21:13:48.608Z,90.20
2018-05-15T21:16:16.184Z,90.30
2018-05-15T21:18:43.737Z,90.40
2018-05-15T21:21:11.358Z,90.50
2018-05-15T21:23:38.977Z,90.70
2018-05-15T21:26:07.326Z,91.10
2018-05-15T21:28:34.927Z,91.10
2018-05-15T21:31:03.333Z,91.40
2018-05-15T21:33:30.916Z,91.40
2018-05-15T21:35:58.595Z,91.60
2018-05-15T21:38:26.176Z,91.90
2018-05-15T21:40:54.537Z,92.20
2018-05-15T21:43:22.114Z,92.20
2018-05-15T21:45:50.439Z,92.40
2018-05-15T21:48:18.016Z,92.30
2018-05-15T21:50:45.629Z,92.60
2018-05-15T21:53:13.247Z,92.60
2018-05-15T21:55:40.837Z,92.60
2018-05-15T21:58:08.458Z,92.80
2018-05-15T22:00:36.058Z,92.80
2018-05-15T22:03:03.705Z,93.00
2018-05-15T22:05:31.295Z,92.90
2018-05-15T22:07:59.620Z,93.20
2018-05-15T22:10:27.235Z,93.20
2018-05-15T22:13:07.768Z,93.50
2018-05-15T22:15:47.512Z,93.50
2018-05-15T22:18:27.492Z,93.70
2018-05-15T22:21:07.397Z,93.30
2018-05-15T22:23:34.489Z,93.40
2018-05-15T22:26:02.850Z,93.50
2018-05-15T22:28:30.432Z,93.50
2018-05-15T22:30:58.757Z,93.60
2018-05-15T22:33:26.398Z,93.60
2018-05-15T22:35:53.984Z,93.70
2018-05-15T22:38:21.604Z,94.00
2018-05-15T22:40:49.155Z,94.00
2018-05-15T22:43:16.823Z,94.20
2018-05-15T22:45:44.552Z,94.30
2018-05-15T22:48:12.546Z,94.40
2018-05-15T22:50:40.908Z,95.00
2018-05-15T22:53:08.529Z,95.00
2018-05-15T22:55:36.125Z,94.90
2018-05-15T22:58:04.456Z,95.10
2018-05-15T23:00:32.082Z,95.10
2018-05-15T23:02:59.665Z,95.20
2018-05-15T23:05:27.267Z,95.30
2018-05-15T23:07:54.862Z,95.30
2018-05-15T23:10:22.504Z,95.40
2018-05-15T23:12:50.197Z,95.50
2018-05-15T23:15:17.841Z,95.50
2018-05-15T23:17:46.226Z,95.80
2018-05-15T23:20:14.639Z,95.80
2018-05-15T23:22:42.269Z,95.80
2018-05-15T23:25:10.598Z,95.90
2018-05-15T23:27:38.192Z,95.90
2018-05-15T23:30:05.769Z,95.90
2018-05-15T23:32:34.146Z,96.50
2018-05-15T23:35:02.486Z,96.20
2018-05-15T23:37:30.145Z,96.20
2018-05-15T23:39:57.734Z,96.50
2018-05-15T23:42:25.356Z,96.40
2018-05-15T23:44:52.981Z,96.70
2018-05-15T23:47:20.623Z,96.80
2018-05-15T23:49:48.943Z,97.30
2018-05-15T23:52:16.538Z,97.20
2018-05-15T23:54:44.138Z,97.50
2018-05-15T23:57:12.488Z,97.70
2018-05-15T23:59:40.088Z,97.70
